Aysenur — ERJR — position and weather

sailwx.info

Track history (hours):
 
Tides and Currents Weather Stations Pressure Air Temp Water Temp Dewpoint Dewpoint Depression Visibility Wind Speed Wind Dir Waves Ship Positions

Aysenur

Last reported at 2015-Mar-27 06:33 UTC. Time now 2015-Mar-27 15:40 UTC.
Position N 45°45' E 030°42'.

Length 79 m; draft 5.3 m.

Type: Cargo ship. MMSI: 214181018.

Date/timePositionNaut miles runAvg speedWind from/ knotsBaromVisibWave heightAir tempDewpointWater temp
2015-Mar-27 06:33N 45°45' E 030°42'10 8.2
2015-Mar-27 05:21N 45°55' E 030°45'9 8.3
2015-Mar-27 04:15N 46°04' E 030°49'22 8.1
2015-Mar-27 01:33N 46°25' E 030°55'22 6.8
2015-Mar-26 22:24N 46°35' E 031°23'16 8.2
2015-Mar-26 20:31N 46°36' E 031°46'7 7.0
2015-Mar-26 19:33N 46°38' E 031°55'6 6.0
2015-Mar-26 18:33N 46°44' E 031°55'6 5.5
2015-Mar-26 17:33N 46°50' E 031°56'3 2.6
2015-Mar-26 16:29N 46°51' E 031°59'0 0.0
2015-Mar-26 15:32N 46°51' E 031°59'0 0.0
2015-Mar-26 14:32N 46°51' E 031°59'0 0.0
2015-Mar-26 13:32N 46°51' E 031°59'0 0.0
2015-Mar-26 12:32N 46°51' E 031°59'0 0.0
2015-Mar-26 11:32N 46°51' E 031°59'0 0.0
2015-Mar-26 10:29N 46°51' E 031°59'0 0.0
2015-Mar-26 09:32N 46°51' E 031°59'0 0.0
2015-Mar-26 08:32N 46°51' E 031°59'0 0.0
2015-Mar-26 07:32N 46°51' E 031°59'0 0.0
2015-Mar-26 06:32N 46°51' E 031°59'0 0.0
2015-Mar-26 05:32N 46°51' E 031°59'0 0.0
2015-Mar-26 04:32N 46°51' E 031°59'0 0.0
2015-Mar-26 03:32N 46°51' E 031°59'0 0.0
2015-Mar-26 02:32N 46°51' E 031°59'0 0.0
2015-Mar-26 01:32N 46°51' E 031°59'0 0.0
2015-Mar-26 00:32N 46°51' E 031°59'0 0.0
2015-Mar-25 23:29N 46°51' E 031°59'0 0.0
2015-Mar-25 22:32N 46°51' E 031°59'0 0.0
2015-Mar-25 21:32N 46°51' E 031°59'0 0.0
2015-Mar-25 20:32N 46°51' E 031°59'0 0.0
2015-Mar-25 19:32N 46°51' E 031°59'0 0.0
2015-Mar-25 18:32N 46°51' E 031°59'0 0.0
2015-Mar-25 13:31N 46°51' E 031°59'0 0.0
2015-Mar-25 12:31N 46°51' E 031°59'0 0.0
2015-Mar-25 11:31N 46°51' E 031°59'0 0.0
2015-Mar-25 10:31N 46°51' E 031°59'0 0.0
2015-Mar-25 09:31N 46°51' E 031°59'0 0.0
2015-Mar-25 08:31N 46°51' E 031°59'0 0.0
2015-Mar-25 07:31N 46°51' E 031°59'0 0.0
2015-Mar-25 06:31N 46°51' E 031°59'0 0.0
2015-Mar-25 05:31N 46°51' E 031°59'0 0.0
2015-Mar-25 04:31N 46°51' E 031°59'0 0.0
2015-Mar-25 03:28N 46°51' E 031°59'0 0.0
2015-Mar-25 02:31N 46°51' E 031°59'0 0.0
2015-Mar-25 01:31N 46°51' E 031°59'0 0.0
2015-Mar-25 00:28N 46°51' E 031°59'0 0.0
2015-Mar-24 23:31N 46°51' E 031°59'0 0.0
2015-Mar-24 22:31N 46°51' E 031°59'0 0.0
2015-Mar-24 21:31N 46°51' E 031°59'0 0.0
2015-Mar-24 20:31N 46°51' E 031°59'0 0.0
2015-Mar-24 19:31N 46°51' E 031°59'0 0.0
2015-Mar-24 18:31N 46°51' E 031°59'0 0.0
2015-Mar-24 17:31N 46°51' E 031°59'0 0.0
2015-Mar-24 16:31N 46°51' E 031°59'0 0.0
2015-Mar-24 15:31N 46°51' E 031°59'0 0.0
2015-Mar-24 14:31N 46°51' E 031°59'0 0.0
2015-Mar-24 13:28N 46°51' E 031°59'0 0.0
2015-Mar-24 12:31N 46°51' E 031°59'0 0.0
2015-Mar-24 11:31N 46°51' E 031°59'0 0.0
2015-Mar-24 10:31N 46°51' E 031°59'0 0.0
2015-Mar-24 09:31N 46°51' E 031°59'0 0.0
2015-Mar-24 08:31N 46°51' E 031°59'0 0.0
2015-Mar-24 07:31N 46°51' E 031°59'0 0.0
2015-Mar-24 06:31N 46°51' E 031°59'0 0.0
2015-Mar-24 05:31N 46°51' E 031°59'0 0.0
2015-Mar-24 04:28N 46°51' E 031°59'0 0.0
2015-Mar-24 03:31N 46°51' E 031°59'0 0.0
2015-Mar-24 02:31N 46°51' E 031°59'0 0.0
2015-Mar-24 01:33N 46°51' E 031°59'0 0.0
2015-Mar-24 00:33N 46°51' E 031°59'0 0.0
2015-Mar-23 23:33N 46°51' E 031°59'0 0.0
2015-Mar-23 22:30N 46°51' E 031°59'0 0.0
2015-Mar-23 21:33N 46°51' E 031°59'0 0.0
2015-Mar-23 20:33N 46°51' E 031°59'0 0.0
2015-Mar-23 19:33N 46°51' E 031°59'0 0.0
2015-Mar-23 18:33N 46°51' E 031°59'0 0.0
2015-Mar-23 17:33N 46°51' E 031°59'0 0.0
2015-Mar-23 16:33N 46°51' E 031°59'0 0.0
2015-Mar-23 15:33N 46°51' E 031°59'0 0.0
2015-Mar-23 14:33N 46°51' E 031°59'0 0.0
2015-Mar-23 13:33N 46°51' E 031°59'0 0.0
2015-Mar-23 12:33N 46°51' E 031°59'0 0.0
2015-Mar-23 11:33N 46°51' E 031°59'0 0.0
2015-Mar-23 10:33N 46°51' E 031°59'0 0.0
2015-Mar-23 09:33N 46°51' E 031°59'0 0.0
2015-Mar-23 08:33N 46°51' E 031°59'0 0.0
2015-Mar-23 07:33N 46°51' E 031°59'0 0.0
2015-Mar-23 06:33N 46°51' E 031°59'0 0.0
2015-Mar-23 05:33N 46°51' E 031°59'0 0.0
2015-Mar-23 04:30N 46°51' E 031°59'0 0.0
2015-Mar-23 03:33N 46°51' E 031°59'0 0.0
2015-Mar-23 02:33N 46°51' E 031°59'0 0.0
2015-Mar-23 01:30N 46°51' E 031°59'0 0.0
2015-Mar-23 00:33N 46°51' E 031°59'0 0.0
2015-Mar-22 23:33N 46°51' E 031°59'0 0.0
2015-Mar-22 22:33N 46°51' E 031°59'0 0.0
2015-Mar-22 21:33N 46°51' E 031°59'0 0.0
2015-Mar-22 20:33N 46°51' E 031°59'0 0.0
2015-Mar-22 19:33N 46°51' E 031°59'0 0.0
2015-Mar-22 18:33N 46°51' E 031°59'0 0.0
2015-Mar-22 17:33N 46°51' E 031°59'0 0.0
2015-Mar-22 16:33N 46°51' E 031°59'0 0.0
2015-Mar-22 15:33N 46°51' E 031°59'0 0.0
2015-Mar-22 14:33N 46°51' E 031°59'0 0.0
2015-Mar-22 13:32N 46°51' E 031°59'0 0.0
2015-Mar-22 12:32N 46°51' E 031°59'0 0.0
2015-Mar-22 11:29N 46°51' E 031°59'0 0.0
2015-Mar-22 10:32N 46°51' E 031°59'1 1.0
2015-Mar-22 09:33N 46°51' E 031°58'7 7.4
2015-Mar-22 08:33N 46°44' E 031°55'8 8.4
2015-Mar-22 07:33N 46°36' E 031°51'10 9.7
2015-Mar-22 06:32N 46°35' E 031°36'9 8.8
2015-Mar-22 05:31N 46°35' E 031°23'  
Track history (hours):
 
Tides and Currents Weather Stations Pressure Air Temp Water Temp Dewpoint Dewpoint Depression Visibility Wind Speed Wind Dir Waves Ship Positions

Aysenur

Last reported at 2015-Mar-27 06:33 UTC. Time now 2015-Mar-27 15:40 UTC.
Position N 45°45' E 030°42'.

Length 79 m; draft 5.3 m.

Type: Cargo ship. MMSI: 214181018.

Date/timePositionNaut miles runAvg speedWind from/ knotsBaromVisibWave heightAir tempDewpointWater temp
2015-Mar-27 06:33N 45°45' E 030°42'10 8.2
2015-Mar-27 05:21N 45°55' E 030°45'9 8.3
2015-Mar-27 04:15N 46°04' E 030°49'22 8.1
2015-Mar-27 01:33N 46°25' E 030°55'22 6.8
2015-Mar-26 22:24N 46°35' E 031°23'16 8.2
2015-Mar-26 20:31N 46°36' E 031°46'7 7.0
2015-Mar-26 19:33N 46°38' E 031°55'6 6.0
2015-Mar-26 18:33N 46°44' E 031°55'6 5.5
2015-Mar-26 17:33N 46°50' E 031°56'3 2.6
2015-Mar-26 16:29N 46°51' E 031°59'0 0.0
2015-Mar-26 15:32N 46°51' E 031°59'0 0.0
2015-Mar-26 14:32N 46°51' E 031°59'0 0.0
2015-Mar-26 13:32N 46°51' E 031°59'0 0.0
2015-Mar-26 12:32N 46°51' E 031°59'0 0.0
2015-Mar-26 11:32N 46°51' E 031°59'0 0.0
2015-Mar-26 10:29N 46°51' E 031°59'0 0.0
2015-Mar-26 09:32N 46°51' E 031°59'0 0.0
2015-Mar-26 08:32N 46°51' E 031°59'0 0.0
2015-Mar-26 07:32N 46°51' E 031°59'0 0.0
2015-Mar-26 06:32N 46°51' E 031°59'0 0.0
2015-Mar-26 05:32N 46°51' E 031°59'0 0.0
2015-Mar-26 04:32N 46°51' E 031°59'0 0.0
2015-Mar-26 03:32N 46°51' E 031°59'0 0.0
2015-Mar-26 02:32N 46°51' E 031°59'0 0.0
2015-Mar-26 01:32N 46°51' E 031°59'0 0.0
2015-Mar-26 00:32N 46°51' E 031°59'0 0.0
2015-Mar-25 23:29N 46°51' E 031°59'0 0.0
2015-Mar-25 22:32N 46°51' E 031°59'0 0.0
2015-Mar-25 21:32N 46°51' E 031°59'0 0.0
2015-Mar-25 20:32N 46°51' E 031°59'0 0.0
2015-Mar-25 19:32N 46°51' E 031°59'0 0.0
2015-Mar-25 18:32N 46°51' E 031°59'0 0.0
2015-Mar-25 13:31N 46°51' E 031°59'0 0.0
2015-Mar-25 12:31N 46°51' E 031°59'0 0.0
2015-Mar-25 11:31N 46°51' E 031°59'0 0.0
2015-Mar-25 10:31N 46°51' E 031°59'0 0.0
2015-Mar-25 09:31N 46°51' E 031°59'0 0.0
2015-Mar-25 08:31N 46°51' E 031°59'0 0.0
2015-Mar-25 07:31N 46°51' E 031°59'0 0.0
2015-Mar-25 06:31N 46°51' E 031°59'0 0.0
2015-Mar-25 05:31N 46°51' E 031°59'0 0.0
2015-Mar-25 04:31N 46°51' E 031°59'0 0.0
2015-Mar-25 03:28N 46°51' E 031°59'0 0.0
2015-Mar-25 02:31N 46°51' E 031°59'0 0.0
2015-Mar-25 01:31N 46°51' E 031°59'0 0.0
2015-Mar-25 00:28N 46°51' E 031°59'0 0.0
2015-Mar-24 23:31N 46°51' E 031°59'0 0.0
2015-Mar-24 22:31N 46°51' E 031°59'0 0.0
2015-Mar-24 21:31N 46°51' E 031°59'0 0.0
2015-Mar-24 20:31N 46°51' E 031°59'0 0.0
2015-Mar-24 19:31N 46°51' E 031°59'0 0.0
2015-Mar-24 18:31N 46°51' E 031°59'0 0.0
2015-Mar-24 17:31N 46°51' E 031°59'0 0.0
2015-Mar-24 16:31N 46°51' E 031°59'0 0.0
2015-Mar-24 15:31N 46°51' E 031°59'0 0.0
2015-Mar-24 14:31N 46°51' E 031°59'0 0.0
2015-Mar-24 13:28N 46°51' E 031°59'0 0.0
2015-Mar-24 12:31N 46°51' E 031°59'0 0.0
2015-Mar-24 11:31N 46°51' E 031°59'0 0.0
2015-Mar-24 10:31N 46°51' E 031°59'0 0.0
2015-Mar-24 09:31N 46°51' E 031°59'0 0.0
2015-Mar-24 08:31N 46°51' E 031°59'0 0.0
2015-Mar-24 07:31N 46°51' E 031°59'0 0.0
2015-Mar-24 06:31N 46°51' E 031°59'0 0.0
2015-Mar-24 05:31N 46°51' E 031°59'0 0.0
2015-Mar-24 04:28N 46°51' E 031°59'0 0.0
2015-Mar-24 03:31N 46°51' E 031°59'0 0.0
2015-Mar-24 02:31N 46°51' E 031°59'0 0.0
2015-Mar-24 01:33N 46°51' E 031°59'0 0.0
2015-Mar-24 00:33N 46°51' E 031°59'0 0.0
2015-Mar-23 23:33N 46°51' E 031°59'0 0.0
2015-Mar-23 22:30N 46°51' E 031°59'0 0.0
2015-Mar-23 21:33N 46°51' E 031°59'0 0.0
2015-Mar-23 20:33N 46°51' E 031°59'0 0.0
2015-Mar-23 19:33N 46°51' E 031°59'0 0.0
2015-Mar-23 18:33N 46°51' E 031°59'0 0.0
2015-Mar-23 17:33N 46°51' E 031°59'0 0.0
2015-Mar-23 16:33N 46°51' E 031°59'0 0.0
2015-Mar-23 15:33N 46°51' E 031°59'0 0.0
2015-Mar-23 14:33N 46°51' E 031°59'0 0.0
2015-Mar-23 13:33N 46°51' E 031°59'0 0.0
2015-Mar-23 12:33N 46°51' E 031°59'0 0.0
2015-Mar-23 11:33N 46°51' E 031°59'0 0.0
2015-Mar-23 10:33N 46°51' E 031°59'0 0.0
2015-Mar-23 09:33N 46°51' E 031°59'0 0.0
2015-Mar-23 08:33N 46°51' E 031°59'0 0.0
2015-Mar-23 07:33N 46°51' E 031°59'0 0.0
2015-Mar-23 06:33N 46°51' E 031°59'0 0.0
2015-Mar-23 05:33N 46°51' E 031°59'0 0.0
2015-Mar-23 04:30N 46°51' E 031°59'0 0.0
2015-Mar-23 03:33N 46°51' E 031°59'0 0.0
2015-Mar-23 02:33N 46°51' E 031°59'0 0.0
2015-Mar-23 01:30N 46°51' E 031°59'0 0.0
2015-Mar-23 00:33N 46°51' E 031°59'0 0.0
2015-Mar-22 23:33N 46°51' E 031°59'0 0.0
2015-Mar-22 22:33N 46°51' E 031°59'0 0.0
2015-Mar-22 21:33N 46°51' E 031°59'0 0.0
2015-Mar-22 20:33N 46°51' E 031°59'0 0.0
2015-Mar-22 19:33N 46°51' E 031°59'0 0.0
2015-Mar-22 18:33N 46°51' E 031°59'0 0.0
2015-Mar-22 17:33N 46°51' E 031°59'0 0.0
2015-Mar-22 16:33N 46°51' E 031°59'0 0.0
2015-Mar-22 15:33N 46°51' E 031°59'0 0.0
2015-Mar-22 14:33N 46°51' E 031°59'0 0.0
2015-Mar-22 13:32N 46°51' E 031°59'0 0.0
2015-Mar-22 12:32N 46°51' E 031°59'0 0.0
2015-Mar-22 11:29N 46°51' E 031°59'0 0.0
2015-Mar-22 10:32N 46°51' E 031°59'1 1.0
2015-Mar-22 09:33N 46°51' E 031°58'7 7.4
2015-Mar-22 08:33N 46°44' E 031°55'8 8.4
2015-Mar-22 07:33N 46°36' E 031°51'10 9.7
2015-Mar-22 06:32N 46°35' E 031°36'9 8.8
2015-Mar-22 05:31N 46°35' E 031°23'  

Dump ship's entire track history